TFM - Tactical Decision Aid
ID: Runway Winds: CIG/VIS Threshold:

KLGA - New York/La Guardia, NY, US

Updated at: 1906 UTC 26 Oct 2021
Latest TAF at: 1729 UTC 26 Oct 2021

TAF Board

Time1851Z 26/20Z 26/21Z 26/22Z 26/23Z 27/00Z 27/01Z 27/02Z 27/03Z 27/04Z 27/05Z 27/06Z 27/07Z 27/08Z>>
Type OBS PRVL
  [TEMP]  
PRVL
  [TEMP]  
PRVL PRVL PRVL PRVL PRVL PRVL PRVL PRVL PRVL PRVL PRVL
VIS 10 6
  [5]  
6
  [5]  
6 3 3 3 3 4 4 4 4 4 >6
CIG 100 15
  [15]  
15
  [15]  
15 6 6 6 6 12 12 12 12 12 25
Cover OVC BKN
  [BKN]  
BKN
  [BKN]  
BKN OVC OVC OVC OVC OVC OVC OVC OVC OVC BKN
FltCat VFR MVFR
  [MVFR]  
MVFR
  [MVFR]  
MVFR IFR IFR IFR IFR MVFR MVFR MVFR MVFR MVFR MVFR
WX -- -SHRA BR
  [-RA BR]  
-SHRA BR
  [-RA BR]  
-SHRA BR RA BR RA BR RA BR RA BR -RA BR -RA BR -RA BR -RA BR -RA BR VCSH
WDir 200 180
[180]
180
[180]
180 40 40 40 40 360 360 360 360 360 350
WSpd 7 12
  [12]  
12
  [12]  
12 14 14 14 14 21 21 21 21 21 26
WGst -- 18
  [18]  
18
  [18]  
18 20 20 20 20 31 31 31 31 31 38

TDA Impact Legend

  None Marginal Slight Moderate High
Visibility (sm) >5 3≤X≤5 1≤X<3 0.5≤X<1 <0.5
Ceiling (100 ft) >30 10≤X≤30 4≤X<10 2≤X<4 <2
Wind Speed (kt) <15 15≤X<25 25≤X<30 ≥30
Wind Gust (kt) <15 15≤X<25 25≤X<35 ≥35
Weather No Wx Reported VCTS -TS,-FZRA TS,FZRA +TS,+FZRA
TAF
KLGA 261729Z 2618/2724 18012G18KT 6SM -SHRA BR SCT007 BKN015
  TEMPO 2618/2622 5SM -RA BR
  FM262300 04014G20KT 3SM RA BR BKN006 OVC012
  FM270300 36021G31KT 4SM -RA BR OVC012
  FM270800 35026G38KT P6SM VCSH SCT015 BKN025
  FM271800 35020G30KT P6SM VCSH BKN025


METAR
KLGA 261851Z 20007KT 10SM SCT017 SCT027 BKN100 OVC250 17/12 A2936 RMK AO2 SLP940 T01670117
KLGA 261751Z 20013G19KT 10SM BKN021 BKN100 OVC200 17/11 A2934 RMK AO2 SLP936 60042 T01670111 10178 20139 50006
KLGA 261723Z 18015G21KT 10SM BKN019 OVC050 15/12 A2934 RMK AO2 T01500117
KLGA 261651Z 18012G19KT 10SM BKN014 BKN050 OVC140 14/12 A2934 RMK AO2 SLP937 T01390122
KLGA 261551Z 20010KT 10SM FEW008 BKN010 OVC055 15/13 A2933 RMK AO2 RAE26 SLP933 P0001 T01500133
KLGA 261541Z 23010KT 10SM BKN010 OVC055 15/13 A2933 RMK AO2 RAE26 P0001 T01500133

Radar Display
Forecast Discussion